Time;durP1;ratioP1;P1;durP2;ratioP2;P2;SDS_P1;SDS_P2;PMS_P1;PMS_P2;Temp;Humidity;BMP_temperature;BMP_pressure;BME280_temperature;BME280_humidity;BME280_pressure;Samples;Min_cycle;Max_cycle;Signal;HPM_P1;HPM_P2
2023/03/28 00:02:26;;;;;;;3.90;1.88;;;;;;;;;;4966057;28;20051;-53
2023/03/28 00:04:53;;;;;;;3.22;1.70;;;;;;;;;;4970086;28;20444;-56
2023/03/28 00:07:28;;;;;;;2.63;1.63;;;;;;;;;;4968928;28;20074;-55
2023/03/28 00:09:56;;;;;;;5.25;1.60;;;;;;;;;;4968526;28;20442;-53
2023/03/28 00:12:29;;;;;;;1.92;1.50;;;;;;;;;;4971587;28;20051;-50
2023/03/28 00:14:57;;;;;;;1.95;1.75;;;;;;;;;;4966714;28;20051;-54
2023/03/28 00:17:24;;;;;;;2.95;1.50;;;;;;;;;;4965920;28;20555;-54
2023/03/28 00:20:01;;;;;;;3.83;1.52;;;;;;;;;;4974905;28;20058;-51
2023/03/28 00:22:36;;;;;;;5.63;1.63;;;;;;;;;;4967218;28;20058;-49
2023/03/28 00:25:10;;;;;;;2.47;1.77;;;;;;;;;;4971620;28;20062;-55
2023/03/28 00:27:37;;;;;;;3.25;1.63;;;;;;;;;;4970109;28;20510;-52
2023/03/28 00:30:24;;;;;;;1.48;1.33;;;;;;;;;;4974997;28;20076;-54
2023/03/28 00:32:58;;;;;;;3.55;1.80;;;;;;;;;;4979523;28;20056;-63
2023/03/28 00:35:33;;;;;;;4.18;1.60;;;;;;;;;;4985500;28;20051;-64
2023/03/28 00:38:00;;;;;;;;;;;;;;;;;;4989860;28;20154;-63
2023/03/28 00:40:29;;;;;;;2.47;2.00;;;;;;;;;;4986633;28;19957;-63
2023/03/28 00:43:03;;;;;;;2.20;1.52;;;;;;;;;;4982843;28;20050;-63
2023/03/28 00:45:31;;;;;;;3.50;1.55;;;;;;;;;;4984073;28;20046;-63
2023/03/28 00:48:06;;;;;;;3.00;1.80;;;;;;;;;;4983247;28;20492;-63
2023/03/28 00:50:45;;;;;;;4.07;1.48;;;;;;;;;;4981783;28;20054;-53
2023/03/28 00:53:20;;;;;;;3.08;1.50;;;;;;;;;;4987464;28;20524;-52
2023/03/28 00:55:48;;;;;;;2.30;2.10;;;;;;;;;;4983410;28;20045;-53
2023/03/28 00:58:15;;;;;;;;;;;;;;;;;;4981533;28;20540;-51
2023/03/28 01:00:49;;;;;;;5.72;1.60;;;;;;;;;;4986866;28;19921;-48
2023/03/28 01:03:18;;;;;;;2.53;1.48;;;;;;;;;;4981871;28;20058;-53
2023/03/28 01:05:52;;;;;;;3.10;1.50;;;;;;;;;;4985558;28;20444;-49
2023/03/28 01:08:23;;;;;;;1.92;1.45;;;;;;;;;;4980396;28;20519;-53
2023/03/28 01:10:50;;;;;;;4.90;1.70;;;;;;;;;;4988395;28;20058;-50
2023/03/28 01:13:26;;;;;;;2.03;1.42;;;;;;;;;;4964542;28;20145;-49
2023/03/28 01:15:53;;;;;;;6.20;1.90;;;;;;;;;;4984319;28;20053;-51
2023/03/28 01:18:29;;;;;;;3.93;1.60;;;;;;;;;;4981308;28;20268;-61
2023/03/28 01:21:05;;;;;;;2.42;1.73;;;;;;;;;;4980632;28;20054;-61
2023/03/28 01:23:48;;;;;;;2.33;1.73;;;;;;;;;;4987004;28;20161;-61
2023/03/28 01:26:40;;;;;;;3.03;1.10;;;;;;;;;;4986409;28;20069;-61
2023/03/28 01:29:29;;;;;;;3.53;1.60;;;;;;;;;;4986298;28;20524;-56
2023/03/28 01:32:22;;;;;;;3.83;1.30;;;;;;;;;;4971036;28;20244;-52
2023/03/28 01:35:11;;;;;;;2.90;1.83;;;;;;;;;;4967989;28;20070;-51
2023/03/28 01:37:43;;;;;;;2.63;1.60;;;;;;;;;;4963114;28;20574;-53
2023/03/28 01:40:17;;;;;;;1.50;1.40;;;;;;;;;;4959556;28;20073;-55
2023/03/28 01:42:51;;;;;;;3.23;1.60;;;;;;;;;;4959800;28;20058;-54
2023/03/28 01:45:38;;;;;;;3.83;1.70;;;;;;;;;;4961530;28;20059;-51
2023/03/28 01:48:12;;;;;;;5.30;1.73;;;;;;;;;;4964811;28;20090;-52
2023/03/28 01:50:56;;;;;;;2.50;1.60;;;;;;;;;;4964997;28;20051;-47
2023/03/28 01:53:40;;;;;;;2.97;1.80;;;;;;;;;;4969305;28;20213;-48
2023/03/28 01:56:21;;;;;;;3.10;1.63;;;;;;;;;;4957172;28;20047;-46
2023/03/28 01:58:58;;;;;;;2.23;1.50;;;;;;;;;;4970284;28;20606;-58
2023/03/28 02:01:36;;;;;;;3.53;1.60;;;;;;;;;;4961547;28;20051;-52
2023/03/28 02:04:06;;;;;;;1.50;1.40;;;;;;;;;;4952019;28;20567;-48
2023/03/28 02:06:48;;;;;;;2.03;1.60;;;;;;;;;;4960645;28;20066;-48
2023/03/28 02:09:23;;;;;;;1.80;1.60;;;;;;;;;;4959496;28;20134;-50
2023/03/28 02:11:53;;;;;;;3.73;1.40;;;;;;;;;;4962857;28;20067;-52
2023/03/28 02:14:23;;;;;;;4.40;1.60;;;;;;;;;;4961605;28;20073;-50
2023/03/28 02:17:00;;;;;;;3.57;1.23;;;;;;;;;;4964186;28;20097;-62
2023/03/28 02:19:34;;;;;;;;;;;;;;;;;;4961167;28;20047;-62
2023/03/28 02:22:15;;;;;;;2.43;1.53;;;;;;;;;;4960445;28;19945;-62
2023/03/28 02:24:50;;;;;;;1.92;1.30;;;;;;;;;;4960319;28;20482;-62
2023/03/28 02:27:19;;;;;;;3.20;1.70;;;;;;;;;;4959581;28;20444;-55
2023/03/28 02:30:07;;;;;;;2.17;1.60;;;;;;;;;;4961917;28;20066;-62
2023/03/28 02:32:42;;;;;;;2.22;1.30;;;;;;;;;;4983927;28;20523;-62
2023/03/28 02:35:20;;;;;;;2.03;1.70;;;;;;;;;;4987545;28;20539;-61
2023/03/28 02:37:59;;;;;;;2.43;1.57;;;;;;;;;;4984599;28;20054;-62
2023/03/28 02:40:36;;;;;;;1.97;1.67;;;;;;;;;;4981890;28;20086;-62
2023/03/28 02:43:13;;;;;;;3.23;1.23;;;;;;;;;;4964674;28;20097;-62
2023/03/28 02:45:57;;;;;;;1.90;1.40;;;;;;;;;;4978128;28;20045;-45
2023/03/28 02:48:30;;;;;;;2.25;1.50;;;;;;;;;;4981855;28;20062;-45
2023/03/28 02:51:22;;;;;;;1.13;1.13;;;;;;;;;;4983628;28;20417;-46
2023/03/28 02:53:57;;;;;;;2.33;1.60;;;;;;;;;;4979218;28;20064;-60
2023/03/28 02:56:44;;;;;;;2.10;1.30;;;;;;;;;;4981963;28;20838;-45
2023/03/28 02:59:15;;;;;;;2.23;1.73;;;;;;;;;;4984489;28;20733;-61
2023/03/28 03:01:49;;;;;;;3.08;2.05;;;;;;;;;;4982961;28;20105;-61
2023/03/28 03:04:23;;;;;;;2.27;1.40;;;;;;;;;;4980232;28;20152;-62
2023/03/28 03:07:00;;;;;;;1.40;1.00;;;;;;;;;;4983732;28;20073;-62
2023/03/28 03:09:37;;;;;;;3.20;1.20;;;;;;;;;;4973404;28;20054;-61
2023/03/28 03:12:12;;;;;;;2.10;1.20;;;;;;;;;;4983143;28;20056;-51
2023/03/28 03:14:40;;;;;;;2.30;1.60;;;;;;;;;;4978797;28;20136;-49
2023/03/28 03:17:08;;;;;;;2.17;1.80;;;;;;;;;;4987899;28;20053;-52
2023/03/28 03:19:42;;;;;;;3.50;1.33;;;;;;;;;;4987039;28;20054;-51
2023/03/28 03:22:10;;;;;;;3.47;1.50;;;;;;;;;;4989008;28;20054;-62
2023/03/28 03:24:49;;;;;;;2.50;1.23;;;;;;;;;;4974960;28;20074;-52
2023/03/28 03:27:17;;;;;;;2.73;1.50;;;;;;;;;;4981994;28;20524;-50
2023/03/28 03:29:52;;;;;;;1.97;1.70;;;;;;;;;;4972873;28;20249;-49
2023/03/28 03:32:25;;;;;;;2.37;1.50;;;;;;;;;;4988841;28;20046;-54
2023/03/28 03:34:59;;;;;;;3.30;1.63;;;;;;;;;;4989440;28;20054;-50
2023/03/28 03:37:33;;;;;;;2.80;1.50;;;;;;;;;;4990260;28;20082;-52
2023/03/28 03:40:08;;;;;;;3.67;1.60;;;;;;;;;;4989954;28;20050;-55
2023/03/28 03:42:36;;;;;;;2.07;1.70;;;;;;;;;;4984040;28;20589;-46
2023/03/28 03:45:10;;;;;;;1.93;1.37;;;;;;;;;;4979395;28;20056;-44
2023/03/28 03:47:37;;;;;;;2.07;1.80;;;;;;;;;;4984759;28;20538;-46
2023/03/28 03:50:04;;;;;;;;;;;;;;;;;;4987618;28;20641;-46
2023/03/28 03:52:37;;;;;;;3.20;1.53;;;;;;;;;;4985911;28;19965;-63
2023/03/28 03:55:05;;;;;;;;;;;;;;;;;;4984272;28;20058;-55
2023/03/28 03:57:32;;;;;;;1.97;1.40;;;;;;;;;;4987385;28;19968;-53
2023/03/28 04:00:10;;;;;;;2.43;1.63;;;;;;;;;;4985930;28;20141;-54
2023/03/28 04:02:38;;;;;;;2.27;1.63;;;;;;;;;;4988520;28;20519;-52
2023/03/28 04:05:12;;;;;;;6.20;1.80;;;;;;;;;;4984726;28;21079;-50
2023/03/28 04:07:40;;;;;;;;;;;;;;;;;;4974508;28;20066;-57
2023/03/28 04:10:07;;;;;;;2.80;1.60;;;;;;;;;;4978102;28;20109;-63
2023/03/28 04:12:40;;;;;;;4.87;1.70;;;;;;;;;;4972418;28;20072;-63
2023/03/28 04:15:07;;;;;;;;;;;;;;;;;;4983132;28;20058;-63
2023/03/28 04:17:34;;;;;;;2.17;1.37;;;;;;;;;;4970949;28;20414;-63
2023/03/28 04:20:10;;;;;;;1.40;1.23;;;;;;;;;;4968753;28;20108;-55
2023/03/28 04:22:37;;;;;;;1.73;1.40;;;;;;;;;;4983222;28;20054;-49
2023/03/28 04:25:12;;;;;;;4.90;1.73;;;;;;;;;;4983424;28;20050;-50
2023/03/28 04:27:47;;;;;;;2.07;1.57;;;;;;;;;;4983420;28;20050;-49
2023/03/28 04:30:37;;;;;;;3.23;1.63;;;;;;;;;;4980010;28;20133;-55
2023/03/28 04:33:10;;;;;;;5.27;1.63;;;;;;;;;;4982354;28;20057;-52
2023/03/28 04:35:44;;;;;;;2.73;1.50;;;;;;;;;;4983413;28;20137;-51
2023/03/28 04:38:11;;;;;;;;;;;;;;;;;;4985966;28;20065;-53
2023/03/28 04:40:46;;;;;;;3.67;2.00;;;;;;;;;;4984287;28;19930;-56
2023/03/28 04:43:13;;;;;;;4.78;2.35;;;;;;;;;;4984931;28;20575;-54
2023/03/28 04:45:40;;;;;;;7.97;2.90;;;;;;;;;;4982093;28;20054;-57
2023/03/28 04:48:14;;;;;;;10.93;3.17;;;;;;;;;;4980081;28;20051;-57
2023/03/28 04:50:42;;;;;;;7.93;3.00;;;;;;;;;;4987042;28;20072;-49
2023/03/28 04:53:16;;;;;;;5.43;2.33;;;;;;;;;;4964123;28;20054;-61
2023/03/28 04:55:47;;;;;;;2.90;2.00;;;;;;;;;;4977353;28;20546;-60
2023/03/28 04:58:19;;;;;;;1.90;1.50;;;;;;;;;;4982092;28;20050;-61
2023/03/28 05:00:54;;;;;;;4.47;1.70;;;;;;;;;;4979234;28;20057;-61
2023/03/28 05:03:22;;;;;;;2.20;1.67;;;;;;;;;;4976672;28;20054;-61
2023/03/28 05:05:56;;;;;;;2.00;1.50;;;;;;;;;;4973075;28;20050;-45
2023/03/28 05:08:23;;;;;;;;;;;;;;;;;;4969482;28;20047;-45
2023/03/28 05:10:50;;;;;;;6.70;2.40;;;;;;;;;;4979740;28;19972;-46
2023/03/28 05:13:25;;;;;;;4.00;1.80;;;;;;;;;;4993094;28;20491;-49
2023/03/28 05:15:52;;;;;;;;;;;;;;;;;;4987856;28;20210;-49
2023/03/28 05:18:25;;;;;;;1.67;1.30;;;;;;;;;;4984982;28;20498;-62
2023/03/28 05:20:53;;;;;;;10.82;1.75;;;;;;;;;;4988358;28;20093;-53
2023/03/28 05:23:20;;;;;;;;;;;;;;;;;;4991367;28;20538;-56
2023/03/28 05:25:54;;;;;;;6.50;1.60;;;;;;;;;;4986887;28;19933;-52
2023/03/28 05:28:21;;;;;;;2.93;1.90;;;;;;;;;;4984555;28;20050;-55
2023/03/28 05:31:07;;;;;;;5.47;1.80;;;;;;;;;;4983609;28;20145;-53
2023/03/28 05:33:41;;;;;;;1.53;1.43;;;;;;;;;;4984622;28;20061;-54
2023/03/28 05:36:15;;;;;;;1.93;1.60;;;;;;;;;;4975725;28;20059;-60
2023/03/28 05:38:43;;;;;;;5.43;1.75;;;;;;;;;;4979432;28;20061;-62
2023/03/28 05:41:10;;;;;;;;;;;;;;;;;;4987078;28;20439;-61
2023/03/28 05:43:51;;;;;;;5.73;1.60;;;;;;;;;;4986646;28;19936;-61
2023/03/28 05:46:18;;;;;;;2.80;1.70;;;;;;;;;;4985559;28;20062;-50
2023/03/28 05:48:52;;;;;;;2.43;1.57;;;;;;;;;;4986236;28;20141;-48
2023/03/28 05:51:19;;;;;;;;;;;;;;;;;;4989520;28;20161;-50
2023/03/28 05:53:47;;;;;;;2.10;1.50;;;;;;;;;;4992602;28;19936;-47
2023/03/28 05:56:20;;;;;;;2.83;2.20;;;;;;;;;;4979464;28;20185;-50
2023/03/28 05:58:48;;;;;;;;;;;;;;;;;;4984187;28;20133;-53
2023/03/28 06:01:22;;;;;;;2.50;1.47;;;;;;;;;;4987559;28;19936;-52
2023/03/28 06:03:49;;;;;;;4.87;1.60;;;;;;;;;;4983929;28;20054;-63
2023/03/28 06:06:16;;;;;;;;;;;;;;;;;;4981569;28;20054;-62
2023/03/28 06:08:50;;;;;;;1.97;1.40;;;;;;;;;;4989490;28;19921;-63
2023/03/28 06:11:17;;;;;;;6.03;1.58;;;;;;;;;;4985163;28;20062;-62
2023/03/28 06:13:51;;;;;;;5.63;1.50;;;;;;;;;;4987146;28;20053;-63
2023/03/28 06:16:19;;;;;;;2.20;1.60;;;;;;;;;;4984366;28;20058;-54
2023/03/28 06:18:57;;;;;;;2.90;1.50;;;;;;;;;;4983337;28;20064;-49
2023/03/28 06:21:44;;;;;;;4.97;1.50;;;;;;;;;;4987952;28;20054;-51
2023/03/28 06:24:11;;;;;;;;;;;;;;;;;;4988122;28;20580;-49
2023/03/28 06:26:46;;;;;;;1.87;1.13;;;;;;;;;;4981973;28;19928;-55
2023/03/28 06:29:14;;;;;;;;;;;;;;;;;;4982585;28;20058;-51
2023/03/28 06:31:42;;;;;;;2.40;1.63;;;;;;;;;;4983081;28;19948;-62
2023/03/28 06:34:16;;;;;;;4.03;1.47;;;;;;;;;;4986468;28;20053;-62
2023/03/28 06:36:43;;;;;;;3.93;1.60;;;;;;;;;;4986517;28;20116;-62
2023/03/28 06:39:16;;;;;;;2.57;1.10;;;;;;;;;;4986013;28;20145;-62
2023/03/28 06:41:44;;;;;;;1.63;1.38;;;;;;;;;;4990912;28;20065;-58
2023/03/28 06:44:11;;;;;;;2.15;1.48;;;;;;;;;;4985428;28;20468;-51
2023/03/28 06:46:44;;;;;;;1.85;1.52;;;;;;;;;;4981046;28;20515;-62
2023/03/28 06:49:12;;;;;;;;;;;;;;;;;;4976508;28;20448;-63
2023/03/28 06:51:46;;;;;;;2.30;1.30;;;;;;;;;;4976057;28;19976;-62
2023/03/28 06:54:13;;;;;;;;;;;;;;;;;;4986456;28;20054;-62
2023/03/28 06:56:40;;;;;;;2.27;1.60;;;;;;;;;;4985217;28;19925;-62
2023/03/28 06:59:14;;;;;;;1.50;1.27;;;;;;;;;;4988046;28;20066;-62
2023/03/28 07:01:41;;;;;;;3.58;1.50;;;;;;;;;;4977469;28;20466;-63
2023/03/28 07:04:08;;;;;;;1.63;1.40;;;;;;;;;;4983562;28;20062;-63
2023/03/28 07:06:43;;;;;;;2.03;1.25;;;;;;;;;;4988335;28;20055;-63
2023/03/28 07:09:10;;;;;;;3.13;1.40;;;;;;;;;;4989437;28;20054;-63
2023/03/28 07:11:43;;;;;;;1.55;1.30;;;;;;;;;;4989269;28;20104;-54
2023/03/28 07:14:11;;;;;;;4.53;1.25;;;;;;;;;;4988408;28;20081;-52
2023/03/28 07:16:38;;;;;;;2.40;1.17;;;;;;;;;;4986620;28;20540;-52
2023/03/28 07:19:11;;;;;;;2.20;1.30;;;;;;;;;;4987155;28;20054;-53
2023/03/28 07:21:39;;;;;;;3.22;1.40;;;;;;;;;;4978280;28;20054;-51
2023/03/28 07:24:13;;;;;;;1.42;1.15;;;;;;;;;;4992689;28;20138;-49
2023/03/28 07:26:40;;;;;;;4.10;1.27;;;;;;;;;;4984110;28;20153;-51
2023/03/28 07:29:07;;;;;;;1.70;0.95;;;;;;;;;;4975746;28;20046;-65
2023/03/28 07:31:47;;;;;;;1.60;1.23;;;;;;;;;;4986737;28;20145;-64
2023/03/28 07:34:17;;;;;;;1.45;0.95;;;;;;;;;;4986317;28;20045;-64
2023/03/28 07:36:50;;;;;;;3.35;1.05;;;;;;;;;;4985818;28;20061;-64
2023/03/28 07:39:24;;;;;;;2.35;1.30;;;;;;;;;;4987928;28;20140;-57
2023/03/28 07:41:52;;;;;;;;;;;;;;;;;;4990620;28;20061;-65
2023/03/28 07:44:19;;;;;;;0.95;0.90;;;;;;;;;;4986859;28;19980;-65
2023/03/28 07:46:53;;;;;;;2.97;1.08;;;;;;;;;;4980554;28;20054;-65
2023/03/28 07:49:20;;;;;;;1.00;0.90;;;;;;;;;;4984397;28;20546;-64
2023/03/28 07:51:54;;;;;;;1.73;1.08;;;;;;;;;;4987449;28;20043;-65
2023/03/28 07:54:23;;;;;;;1.77;1.10;;;;;;;;;;4986883;28;20042;-65
2023/03/28 07:56:50;;;;;;;1.30;1.20;;;;;;;;;;4970545;28;20058;-54
2023/03/28 07:59:25;;;;;;;1.10;0.98;;;;;;;;;;4986010;28;20125;-53
2023/03/28 08:01:52;;;;;;;;;;;;;;;;;;4983712;28;20058;-52
2023/03/28 08:04:25;;;;;;;1.23;0.63;;;;;;;;;;4986043;28;20410;-56
2023/03/28 08:06:53;;;;;;;0.93;0.73;;;;;;;;;;4985033;28;20054;-51
2023/03/28 08:09:26;;;;;;;1.65;0.90;;;;;;;;;;4989666;28;20047;-55
2023/03/28 08:11:54;;;;;;;1.20;0.93;;;;;;;;;;4990704;28;20056;-65
2023/03/28 08:14:21;;;;;;;2.00;1.00;;;;;;;;;;4984620;28;20141;-65
2023/03/28 08:16:54;;;;;;;4.10;0.70;;;;;;;;;;4981312;28;20056;-65
2023/03/28 08:19:21;;;;;;;2.47;0.90;;;;;;;;;;4982094;28;20061;-65
2023/03/28 08:21:57;;;;;;;1.17;0.90;;;;;;;;;;4987059;28;20051;-63
2023/03/28 08:24:24;;;;;;;2.80;1.00;;;;;;;;;;4989898;28;20055;-66
2023/03/28 08:27:02;;;;;;;0.98;0.80;;;;;;;;;;4987062;28;20050;-63
2023/03/28 08:29:36;;;;;;;1.15;0.90;;;;;;;;;;4985312;28;20080;-62
2023/03/28 08:32:10;;;;;;;1.55;0.98;;;;;;;;;;4975042;28;20575;-62
2023/03/28 08:34:51;;;;;;;1.00;0.70;;;;;;;;;;4970121;28;20090;-62
2023/03/28 08:37:20;;;;;;;2.88;0.90;;;;;;;;;;4969471;28;20114;-55
2023/03/28 08:39:55;;;;;;;2.38;1.10;;;;;;;;;;4968175;28;20052;-54
2023/03/28 08:43:07;;;;;;;1.70;1.38;;;;;;;;;;4971111;28;20053;-55
2023/03/28 08:45:50;;;;;;;1.48;1.10;;;;;;;;;;4900350;29;20136;-52
2023/03/28 08:48:32;;;;;;;1.25;1.13;;;;;;;;;;4899601;29;20152;-53
2023/03/28 08:51:24;;;;;;;1.63;1.25;;;;;;;;;;4955770;28;20183;-50
2023/03/28 08:54:11;;;;;;;3.60;1.38;;;;;;;;;;4973063;28;20191;-53
2023/03/28 08:56:46;;;;;;;1.27;1.17;;;;;;;;;;4971875;28;20567;-51
2023/03/28 08:59:15;;;;;;;3.70;1.73;;;;;;;;;;4974393;28;20076;-55
2023/03/28 09:01:43;;;;;;;3.10;1.38;;;;;;;;;;4969874;28;20148;-52
2023/03/28 09:04:28;;;;;;;5.97;1.95;;;;;;;;;;4972176;28;20054;-48
2023/03/28 09:06:59;;;;;;;2.38;1.67;;;;;;;;;;4974428;28;20105;-55
2023/03/28 09:09:33;;;;;;;3.15;1.50;;;;;;;;;;4979779;28;20050;-57
2023/03/28 09:12:01;;;;;;;2.70;1.48;;;;;;;;;;4971448;28;20046;-55
2023/03/28 09:14:42;;;;;;;2.97;1.85;;;;;;;;;;4969102;28;20142;-58
2023/03/28 09:17:23;;;;;;;2.15;1.52;;;;;;;;;;4974782;28;20058;-58
2023/03/28 09:20:15;;;;;;;2.67;1.70;;;;;;;;;;4970254;28;20656;-55
2023/03/28 09:22:57;;;;;;;3.42;1.77;;;;;;;;;;4967380;28;20600;-61
2023/03/28 09:25:26;;;;;;;2.08;1.30;;;;;;;;;;4973253;28;20047;-61
2023/03/28 09:28:18;;;;;;;4.55;1.15;;;;;;;;;;4972659;28;20073;-62
2023/03/28 09:31:00;;;;;;;3.28;1.30;;;;;;;;;;4973706;28;20165;-62
2023/03/28 09:33:44;;;;;;;2.28;1.23;;;;;;;;;;4987770;28;20058;-62
2023/03/28 09:36:12;;;;;;;2.63;1.20;;;;;;;;;;4973740;28;20112;-61
2023/03/28 09:38:48;;;;;;;3.25;1.67;;;;;;;;;;4988807;28;20061;-61
2023/03/28 09:41:38;;;;;;;1.40;1.10;;;;;;;;;;4988150;28;20148;-61
2023/03/28 09:44:13;;;;;;;1.67;0.90;;;;;;;;;;4985424;28;20520;-61
2023/03/28 09:46:42;;;;;;;2.13;0.90;;;;;;;;;;4985183;28;20089;-62
2023/03/28 09:49:17;;;;;;;1.50;1.00;;;;;;;;;;4982850;28;20049;-62
2023/03/28 09:51:45;;;;;;;3.63;0.80;;;;;;;;;;4988378;28;20046;-58
2023/03/28 09:54:12;;;;;;;;;;;;;;;;;;4991127;28;20141;-59
2023/03/28 09:56:45;;;;;;;0.63;0.63;;;;;;;;;;4985275;28;21054;-56
2023/03/28 09:59:22;;;;;;;5.07;1.90;;;;;;;;;;4988530;28;20050;-58
2023/03/28 10:01:57;;;;;;;1.80;0.85;;;;;;;;;;4984702;28;20603;-58
2023/03/28 10:04:33;;;;;;;2.97;0.73;;;;;;;;;;4988076;28;20141;-54
2023/03/28 10:07:10;;;;;;;1.30;0.85;;;;;;;;;;4988192;28;20065;-54
2023/03/28 10:09:48;;;;;;;1.85;0.40;;;;;;;;;;4985772;28;20156;-56
2023/03/28 10:12:26;;;;;;;1.08;0.80;;;;;;;;;;4987813;28;20506;-53
2023/03/28 10:14:59;;;;;;;4.00;1.10;;;;;;;;;;4983760;28;20058;-55
2023/03/28 10:17:31;;;;;;;0.98;0.77;;;;;;;;;;4984018;28;20050;-54
2023/03/28 10:20:19;;;;;;;0.70;0.70;;;;;;;;;;4985046;28;20133;-54
2023/03/28 10:22:56;;;;;;;1.67;0.80;;;;;;;;;;4988656;28;20140;-56
2023/03/28 10:25:41;;;;;;;1.23;0.65;;;;;;;;;;4985194;28;20611;-57
2023/03/28 10:28:35;;;;;;;0.80;0.63;;;;;;;;;;4983078;28;20153;-57
2023/03/28 10:31:04;;;;;;;2.92;0.75;;;;;;;;;;4987498;28;20058;-63
2023/03/28 10:33:48;;;;;;;0.82;0.50;;;;;;;;;;4988008;28;20058;-63
2023/03/28 10:36:24;;;;;;;1.00;0.75;;;;;;;;;;4985881;28;20538;-63
2023/03/28 10:38:59;;;;;;;0.95;0.80;;;;;;;;;;4983651;28;20050;-63
2023/03/28 10:41:27;;;;;;;0.77;0.70;;;;;;;;;;4986058;28;20054;-63
2023/03/28 10:43:55;;;;;;;0.93;0.60;;;;;;;;;;4984343;28;20133;-64
2023/03/28 10:46:34;;;;;;;2.10;0.90;;;;;;;;;;4988199;28;20058;-64
2023/03/28 10:49:06;;;;;;;1.17;0.65;;;;;;;;;;4986484;28;20535;-63
2023/03/28 10:51:40;;;;;;;0.47;0.47;;;;;;;;;;4990118;28;20117;-63
2023/03/28 10:54:16;;;;;;;3.30;0.93;;;;;;;;;;4986475;28;20049;-64
2023/03/28 10:56:53;;;;;;;0.70;0.60;;;;;;;;;;4986687;28;20379;-64
2023/03/28 10:59:21;;;;;;;0.88;0.73;;;;;;;;;;4984867;28;20050;-59
2023/03/28 11:02:06;;;;;;;0.43;0.43;;;;;;;;;;4983324;28;20547;-50
2023/03/28 11:04:52;;;;;;;0.75;0.60;;;;;;;;;;4983920;28;20050;-50
2023/03/28 11:07:27;;;;;;;1.45;0.60;;;;;;;;;;4985889;28;20051;-53
2023/03/28 11:10:15;;;;;;;1.65;0.60;;;;;;;;;;4985021;28;20058;-54
2023/03/28 11:12:55;;;;;;;0.55;0.55;;;;;;;;;;4984234;28;20180;-51
2023/03/28 11:15:29;;;;;;;0.80;0.70;;;;;;;;;;4984013;28;20144;-53
2023/03/28 11:18:06;;;;;;;1.90;0.77;;;;;;;;;;4984807;28;20077;-62
2023/03/28 11:20:52;;;;;;;1.27;0.80;;;;;;;;;;4985665;28;20053;-62
2023/03/28 11:23:27;;;;;;;1.88;0.70;;;;;;;;;;4963204;28;20058;-62
2023/03/28 11:26:00;;;;;;;0.73;0.70;;;;;;;;;;4959437;28;20089;-57
2023/03/28 11:28:41;;;;;;;1.23;0.88;;;;;;;;;;4959200;28;20164;-54
2023/03/28 11:31:13;;;;;;;0.70;0.65;;;;;;;;;;4959541;28;20376;-55
2023/03/28 11:34:05;;;;;;;1.00;0.73;;;;;;;;;;4961388;28;20607;-56
2023/03/28 11:36:46;;;;;;;2.72;0.52;;;;;;;;;;4959770;28;20673;-54
2023/03/28 11:39:20;;;;;;;0.55;0.55;;;;;;;;;;4961919;28;20061;-56
2023/03/28 11:41:56;;;;;;;1.05;0.70;;;;;;;;;;4966367;28;20057;-54
2023/03/28 11:44:32;;;;;;;1.33;0.52;;;;;;;;;;4976774;28;20432;-50
2023/03/28 11:47:08;;;;;;;1.13;0.88;;;;;;;;;;4987451;28;20054;-53
2023/03/28 11:49:45;;;;;;;1.52;0.90;;;;;;;;;;4984828;28;20047;-60
2023/03/28 11:52:24;;;;;;;1.20;0.70;;;;;;;;;;4987845;28;20188;-60
2023/03/28 11:54:58;;;;;;;3.17;1.38;;;;;;;;;;4992087;28;20285;-60
2023/03/28 11:57:41;;;;;;;1.35;1.00;;;;;;;;;;4983595;28;20057;-60
2023/03/28 12:00:15;;;;;;;3.15;0.95;;;;;;;;;;4984010;28;20507;-60
2023/03/28 12:02:56;;;;;;;1.02;0.90;;;;;;;;;;4984884;28;20080;-60
2023/03/28 12:05:33;;;;;;;1.50;1.00;;;;;;;;;;4985031;28;20707;-60
2023/03/28 12:08:11;;;;;;;2.40;0.68;;;;;;;;;;4984109;28;20050;-60
2023/03/28 12:10:48;;;;;;;1.65;0.80;;;;;;;;;;4987022;28;20512;-60
2023/03/28 12:13:36;;;;;;;1.52;0.82;;;;;;;;;;4987390;28;22333;-54
2023/03/28 12:16:20;;;;;;;2.08;0.93;;;;;;;;;;4985975;28;20050;-53
2023/03/28 12:18:57;;;;;;;1.55;0.90;;;;;;;;;;4984085;28;20058;-55
2023/03/28 12:21:37;;;;;;;1.83;1.00;;;;;;;;;;4984084;28;20386;-54
2023/03/28 12:24:24;;;;;;;1.58;1.10;;;;;;;;;;4966258;28;20153;-55
2023/03/28 12:27:14;;;;;;;1.38;1.00;;;;;;;;;;4975458;28;20053;-52
2023/03/28 12:29:51;;;;;;;1.10;0.85;;;;;;;;;;4986196;28;20416;-49
2023/03/28 12:32:52;;;;;;;2.00;1.00;;;;;;;;;;4984181;28;20065;-51
2023/03/28 12:35:43;;;;;;;2.28;1.02;;;;;;;;;;4987888;28;20057;-51
2023/03/28 12:38:17;;;;;;;1.38;0.98;;;;;;;;;;4990488;28;20050;-52
2023/03/28 12:41:04;;;;;;;2.05;0.88;;;;;;;;;;4969463;28;20125;-51
2023/03/28 12:43:50;;;;;;;0.82;0.60;;;;;;;;;;4985277;28;20591;-51
2023/03/28 12:46:20;;;;;;;0.68;0.68;;;;;;;;;;4987279;28;20054;-54
2023/03/28 12:49:00;;;;;;;1.65;0.88;;;;;;;;;;4984385;28;20093;-53
2023/03/28 12:51:38;;;;;;;3.75;0.80;;;;;;;;;;4987870;28;20046;-56
2023/03/28 12:54:21;;;;;;;1.75;0.73;;;;;;;;;;4982111;28;20061;-60
2023/03/28 12:57:06;;;;;;;1.38;1.00;;;;;;;;;;4988741;28;20133;-60
2023/03/28 13:00:13;;;;;;;1.75;0.82;;;;;;;;;;4991053;28;20050;-60
2023/03/28 13:03:06;;;;;;;3.25;0.80;;;;;;;;;;4979280;28;20482;-60
2023/03/28 13:05:53;;;;;;;2.88;0.70;;;;;;;;;;4983800;28;20156;-60
2023/03/28 13:08:23;;;;;;;2.22;0.95;;;;;;;;;;4984019;28;20411;-51
2023/03/28 13:11:09;;;;;;;3.53;0.90;;;;;;;;;;4985354;28;20209;-62
2023/03/28 13:13:52;;;;;;;1.38;0.68;;;;;;;;;;4990040;28;20077;-49
2023/03/28 13:16:45;;;;;;;1.23;1.00;;;;;;;;;;4982754;28;20050;-50
2023/03/28 13:19:14;;;;;;;2.72;0.90;;;;;;;;;;4985974;28;20149;-47
2023/03/28 13:21:59;;;;;;;1.58;1.00;;;;;;;;;;4990362;28;20140;-54
2023/03/28 13:24:28;;;;;;;4.65;1.20;;;;;;;;;;4986359;28;21804;-52
2023/03/28 13:27:11;;;;;;;2.42;1.00;;;;;;;;;;4983853;28;20414;-51
2023/03/28 13:29:46;;;;;;;2.25;0.88;;;;;;;;;;4982930;28;20149;-54
2023/03/28 13:32:38;;;;;;;1.83;1.02;;;;;;;;;;4987338;28;20510;-48
2023/03/28 13:35:32;;;;;;;1.65;0.82;;;;;;;;;;4992687;28;20108;-48
2023/03/28 13:38:14;;;;;;;1.75;0.80;;;;;;;;;;4988889;28;20576;-60
2023/03/28 13:40:54;;;;;;;1.17;0.77;;;;;;;;;;4989557;28;20055;-62
2023/03/28 13:43:28;;;;;;;2.65;0.80;;;;;;;;;;4989804;28;20109;-63
2023/03/28 13:45:57;;;;;;;1.23;0.85;;;;;;;;;;4987959;28;20162;-62
2023/03/28 13:48:39;;;;;;;1.10;0.68;;;;;;;;;;4969247;28;20064;-62
2023/03/28 13:51:09;;;;;;;3.95;1.00;;;;;;;;;;4988036;28;20150;-62
2023/03/28 13:53:43;;;;;;;0.70;0.63;;;;;;;;;;4987330;28;20054;-62
2023/03/28 13:56:21;;;;;;;3.25;1.25;;;;;;;;;;4989489;28;20706;-53
2023/03/28 13:58:55;;;;;;;1.17;0.82;;;;;;;;;;4990415;28;20054;-51
2023/03/28 14:01:24;;;;;;;3.50;0.90;;;;;;;;;;4985072;28;20517;-53
2023/03/28 14:03:51;;;;;;;1.85;1.20;;;;;;;;;;4985370;28;20057;-55
2023/03/28 14:06:27;;;;;;;1.90;0.73;;;;;;;;;;4987921;28;20046;-50
2023/03/28 14:08:55;;;;;;;3.17;0.82;;;;;;;;;;4987480;28;20569;-56
2023/03/28 14:24:34;;;;;;;1.90;0.65;;;;;;;;;;4970790;28;20109;-60
2023/03/28 14:27:09;;;;;;;0.52;0.52;;;;;;;;;;4988938;28;20050;-60
2023/03/28 14:29:50;;;;;;;1.65;0.90;;;;;;;;;;4989294;28;20113;-60
2023/03/28 14:32:24;;;;;;;2.38;0.60;;;;;;;;;;4985473;28;20058;-60
2023/03/28 14:35:16;;;;;;;0.90;0.73;;;;;;;;;;4987244;28;20073;-60
2023/03/28 14:37:54;;;;;;;1.13;0.80;;;;;;;;;;4987403;28;20055;-60
2023/03/28 14:40:33;;;;;;;0.82;0.70;;;;;;;;;;4988077;28;20060;-60
2023/03/28 14:43:03;;;;;;;0.73;0.60;;;;;;;;;;4988198;28;20064;-60
2023/03/28 14:45:37;;;;;;;0.95;0.60;;;;;;;;;;4988509;28;20519;-60
2023/03/28 14:48:07;;;;;;;2.08;0.77;;;;;;;;;;4987342;28;20059;-60
2023/03/28 14:50:40;;;;;;;3.13;0.80;;;;;;;;;;4986036;28;20045;-60
2023/03/28 14:53:13;;;;;;;2.25;1.00;;;;;;;;;;4984495;28;20085;-60
2023/03/28 14:55:50;;;;;;;2.38;1.00;;;;;;;;;;4987739;28;20057;-60
2023/03/28 14:58:18;;;;;;;1.23;0.90;;;;;;;;;;4993058;28;20467;-60
2023/03/28 15:00:50;;;;;;;2.67;1.30;;;;;;;;;;4991860;28;20058;-60
2023/03/28 15:03:45;;;;;;;2.40;1.30;;;;;;;;;;4986917;28;20565;-61
2023/03/28 15:06:17;;;;;;;2.90;1.55;;;;;;;;;;4989828;28;20137;-60
2023/03/28 15:08:51;;;;;;;2.08;1.00;;;;;;;;;;4987327;28;20113;-60
2023/03/28 15:11:18;;;;;;;;;;;;;;;;;;4966344;28;21325;-58
2023/03/28 15:14:16;;;;;;;0.90;0.82;;;;;;;;;;4987703;28;19926;-53
2023/03/28 15:16:45;;;;;;;2.53;1.23;;;;;;;;;;4986326;28;20057;-51
2023/03/28 15:19:21;;;;;;;2.55;1.48;;;;;;;;;;4969847;28;20581;-57
2023/03/28 15:21:56;;;;;;;4.60;1.30;;;;;;;;;;4990643;28;20073;-53
2023/03/28 15:24:44;;;;;;;1.98;0.93;;;;;;;;;;4985978;28;20136;-54
2023/03/28 15:27:18;;;;;;;2.90;1.00;;;;;;;;;;4986402;28;20105;-55
2023/03/28 15:29:52;;;;;;;1.02;0.75;;;;;;;;;;4985797;28;20606;-51
2023/03/28 15:32:19;;;;;;;2.75;1.30;;;;;;;;;;4984036;28;20050;-50
2023/03/28 15:35:07;;;;;;;3.75;1.73;;;;;;;;;;4983100;28;20073;-57
2023/03/28 15:37:44;;;;;;;1.42;1.05;;;;;;;;;;4979840;28;20050;-51
2023/03/28 15:40:18;;;;;;;2.10;1.20;;;;;;;;;;4978351;28;20089;-54
2023/03/28 15:42:55;;;;;;;0.93;0.65;;;;;;;;;;4984591;28;20438;-54
2023/03/28 15:45:36;;;;;;;2.28;1.00;;;;;;;;;;4984963;28;20050;-54
2023/03/28 15:48:18;;;;;;;1.40;0.85;;;;;;;;;;4986452;28;20086;-56
2023/03/28 15:50:49;;;;;;;;;;;;;;;;;;4988614;28;20046;-57
2023/03/28 15:53:26;;;;;;;1.48;0.85;;;;;;;;;;4972806;28;19957;-54